sensor_id;sensor_type;location;lat;lon;timestamp;P1;durP1;ratioP1;P2;durP2;ratioP2
60896;SDS011;46749;32.932;-117.130;2023-05-07T00:01:59;0.63;;;0.40;;
60896;SDS011;46749;32.932;-117.130;2023-05-07T00:04:26;0.32;;;0.30;;
60896;SDS011;46749;32.932;-117.130;2023-05-07T00:06:53;0.30;;;0.30;;
60896;SDS011;46749;32.932;-117.130;2023-05-07T00:09:20;0.43;;;0.40;;
60896;SDS011;46749;32.932;-117.130;2023-05-07T00:11:47;0.65;;;0.30;;
60896;SDS011;46749;32.932;-117.130;2023-05-07T00:14:13;0.50;;;0.30;;
60896;SDS011;46749;32.932;-117.130;2023-05-07T00:16:39;0.30;;;0.30;;
60896;SDS011;46749;32.932;-117.130;2023-05-07T00:19:05;0.30;;;0.30;;
60896;SDS011;46749;32.932;-117.130;2023-05-07T00:21:31;0.55;;;0.32;;
60896;SDS011;46749;32.932;-117.130;2023-05-07T00:23:58;0.40;;;0.40;;
60896;SDS011;46749;32.932;-117.130;2023-05-07T00:26:24;0.30;;;0.30;;
60896;SDS011;46749;32.932;-117.130;2023-05-07T00:28:50;0.28;;;0.28;;
60896;SDS011;46749;32.932;-117.130;2023-05-07T00:31:16;0.40;;;0.32;;
60896;SDS011;46749;32.932;-117.130;2023-05-07T00:33:42;0.40;;;0.30;;
60896;SDS011;46749;32.932;-117.130;2023-05-07T00:36:08;1.00;;;0.43;;
60896;SDS011;46749;32.932;-117.130;2023-05-07T00:38:35;1.42;;;0.40;;
60896;SDS011;46749;32.932;-117.130;2023-05-07T00:41:01;0.38;;;0.38;;
60896;SDS011;46749;32.932;-117.130;2023-05-07T00:43:27;0.35;;;0.35;;
60896;SDS011;46749;32.932;-117.130;2023-05-07T00:45:54;0.40;;;0.30;;
60896;SDS011;46749;32.932;-117.130;2023-05-07T00:48:21;0.30;;;0.30;;
60896;SDS011;46749;32.932;-117.130;2023-05-07T00:50:49;0.45;;;0.22;;
60896;SDS011;46749;32.932;-117.130;2023-05-07T00:53:16;0.65;;;0.30;;
60896;SDS011;46749;32.932;-117.130;2023-05-07T00:55:42;0.77;;;0.30;;
60896;SDS011;46749;32.932;-117.130;2023-05-07T00:58:08;0.30;;;0.30;;
60896;SDS011;46749;32.932;-117.130;2023-05-07T01:00:34;0.20;;;0.20;;
60896;SDS011;46749;32.932;-117.130;2023-05-07T01:03:01;0.40;;;0.40;;
60896;SDS011;46749;32.932;-117.130;2023-05-07T01:05:27;0.40;;;0.40;;
60896;SDS011;46749;32.932;-117.130;2023-05-07T01:07:55;0.30;;;0.30;;
60896;SDS011;46749;32.932;-117.130;2023-05-07T01:10:23;0.40;;;0.40;;
60896;SDS011;46749;32.932;-117.130;2023-05-07T01:12:50;0.40;;;0.40;;
60896;SDS011;46749;32.932;-117.130;2023-05-07T01:15:17;0.30;;;0.30;;
60896;SDS011;46749;32.932;-117.130;2023-05-07T01:17:44;0.63;;;0.30;;
60896;SDS011;46749;32.932;-117.130;2023-05-07T01:20:10;0.45;;;0.30;;
60896;SDS011;46749;32.932;-117.130;2023-05-07T01:22:37;0.45;;;0.35;;
60896;SDS011;46749;32.932;-117.130;2023-05-07T01:25:05;0.95;;;0.55;;
60896;SDS011;46749;32.932;-117.130;2023-05-07T01:27:35;0.40;;;0.40;;
60896;SDS011;46749;32.932;-117.130;2023-05-07T01:30:05;0.43;;;0.35;;
60896;SDS011;46749;32.932;-117.130;2023-05-07T01:35:19;0.20;;;0.20;;
60896;SDS011;46749;32.932;-117.130;2023-05-07T01:37:50;0.30;;;0.30;;
60896;SDS011;46749;32.932;-117.130;2023-05-07T01:40:16;0.32;;;0.32;;
60896;SDS011;46749;32.932;-117.130;2023-05-07T01:42:43;0.68;;;0.40;;
60896;SDS011;46749;32.932;-117.130;2023-05-07T01:45:09;0.47;;;0.40;;
60896;SDS011;46749;32.932;-117.130;2023-05-07T01:47:37;0.38;;;0.22;;
60896;SDS011;46749;32.932;-117.130;2023-05-07T01:50:06;0.30;;;0.30;;
60896;SDS011;46749;32.932;-117.130;2023-05-07T01:52:38;0.40;;;0.40;;
60896;SDS011;46749;32.932;-117.130;2023-05-07T01:55:05;0.50;;;0.40;;
60896;SDS011;46749;32.932;-117.130;2023-05-07T01:57:32;0.35;;;0.35;;
60896;SDS011;46749;32.932;-117.130;2023-05-07T01:59:58;0.40;;;0.30;;
60896;SDS011;46749;32.932;-117.130;2023-05-07T02:02:24;0.38;;;0.30;;
60896;SDS011;46749;32.932;-117.130;2023-05-07T02:04:50;0.35;;;0.30;;
60896;SDS011;46749;32.932;-117.130;2023-05-07T02:07:17;1.10;;;0.40;;
60896;SDS011;46749;32.932;-117.130;2023-05-07T02:09:43;0.82;;;0.65;;
60896;SDS011;46749;32.932;-117.130;2023-05-07T02:12:09;0.50;;;0.40;;
60896;SDS011;46749;32.932;-117.130;2023-05-07T02:14:35;0.63;;;0.40;;
60896;SDS011;46749;32.932;-117.130;2023-05-07T02:17:01;0.45;;;0.40;;
60896;SDS011;46749;32.932;-117.130;2023-05-07T02:19:28;0.90;;;0.40;;
60896;SDS011;46749;32.932;-117.130;2023-05-07T02:21:54;0.50;;;0.50;;
60896;SDS011;46749;32.932;-117.130;2023-05-07T02:24:21;1.10;;;0.32;;
60896;SDS011;46749;32.932;-117.130;2023-05-07T02:26:48;0.63;;;0.40;;
60896;SDS011;46749;32.932;-117.130;2023-05-07T02:29:14;0.60;;;0.30;;
60896;SDS011;46749;32.932;-117.130;2023-05-07T02:31:40;0.30;;;0.30;;
60896;SDS011;46749;32.932;-117.130;2023-05-07T02:34:06;0.32;;;0.32;;
60896;SDS011;46749;32.932;-117.130;2023-05-07T02:36:32;0.40;;;0.40;;
60896;SDS011;46749;32.932;-117.130;2023-05-07T02:38:59;0.35;;;0.30;;
60896;SDS011;46749;32.932;-117.130;2023-05-07T02:41:25;0.30;;;0.30;;
60896;SDS011;46749;32.932;-117.130;2023-05-07T02:43:53;0.50;;;0.50;;
60896;SDS011;46749;32.932;-117.130;2023-05-07T02:46:19;0.32;;;0.30;;
60896;SDS011;46749;32.932;-117.130;2023-05-07T02:48:45;0.75;;;0.40;;
60896;SDS011;46749;32.932;-117.130;2023-05-07T02:51:11;0.30;;;0.30;;
60896;SDS011;46749;32.932;-117.130;2023-05-07T02:53:38;1.75;;;0.40;;
60896;SDS011;46749;32.932;-117.130;2023-05-07T02:56:04;1.60;;;0.40;;
60896;SDS011;46749;32.932;-117.130;2023-05-07T02:58:31;0.95;;;0.40;;
60896;SDS011;46749;32.932;-117.130;2023-05-07T03:00:57;0.70;;;0.40;;
60896;SDS011;46749;32.932;-117.130;2023-05-07T03:03:24;0.88;;;0.60;;
60896;SDS011;46749;32.932;-117.130;2023-05-07T03:05:50;1.20;;;0.50;;
60896;SDS011;46749;32.932;-117.130;2023-05-07T03:08:16;0.75;;;0.40;;
60896;SDS011;46749;32.932;-117.130;2023-05-07T03:10:43;0.40;;;0.35;;
60896;SDS011;46749;32.932;-117.130;2023-05-07T03:13:09;0.45;;;0.43;;
60896;SDS011;46749;32.932;-117.130;2023-05-07T03:15:35;2.40;;;0.50;;
60896;SDS011;46749;32.932;-117.130;2023-05-07T03:18:01;0.68;;;0.40;;
60896;SDS011;46749;32.932;-117.130;2023-05-07T03:20:28;0.43;;;0.40;;
60896;SDS011;46749;32.932;-117.130;2023-05-07T03:22:54;0.35;;;0.35;;
60896;SDS011;46749;32.932;-117.130;2023-05-07T03:25:20;1.60;;;0.55;;
60896;SDS011;46749;32.932;-117.130;2023-05-07T03:27:47;0.47;;;0.40;;
60896;SDS011;46749;32.932;-117.130;2023-05-07T03:30:13;0.43;;;0.40;;
60896;SDS011;46749;32.932;-117.130;2023-05-07T03:32:39;1.00;;;0.40;;
60896;SDS011;46749;32.932;-117.130;2023-05-07T03:35:06;0.30;;;0.30;;
60896;SDS011;46749;32.932;-117.130;2023-05-07T03:37:32;0.88;;;0.55;;
60896;SDS011;46749;32.932;-117.130;2023-05-07T03:39:59;1.35;;;0.50;;
60896;SDS011;46749;32.932;-117.130;2023-05-07T03:42:25;0.90;;;0.43;;
60896;SDS011;46749;32.932;-117.130;2023-05-07T03:44:51;0.68;;;0.43;;
60896;SDS011;46749;32.932;-117.130;2023-05-07T03:47:17;1.65;;;0.43;;
60896;SDS011;46749;32.932;-117.130;2023-05-07T03:49:43;1.15;;;0.40;;
60896;SDS011;46749;32.932;-117.130;2023-05-07T03:52:10;1.02;;;0.63;;
60896;SDS011;46749;32.932;-117.130;2023-05-07T03:54:36;0.82;;;0.50;;
60896;SDS011;46749;32.932;-117.130;2023-05-07T03:57:02;1.00;;;0.70;;
60896;SDS011;46749;32.932;-117.130;2023-05-07T03:59:28;0.40;;;0.40;;
60896;SDS011;46749;32.932;-117.130;2023-05-07T04:01:54;0.73;;;0.43;;
60896;SDS011;46749;32.932;-117.130;2023-05-07T04:04:21;1.27;;;0.60;;
60896;SDS011;46749;32.932;-117.130;2023-05-07T04:06:47;0.45;;;0.45;;
60896;SDS011;46749;32.932;-117.130;2023-05-07T04:09:13;0.38;;;0.38;;
60896;SDS011;46749;32.932;-117.130;2023-05-07T04:11:39;0.80;;;0.60;;
60896;SDS011;46749;32.932;-117.130;2023-05-07T04:14:05;0.85;;;0.43;;
60896;SDS011;46749;32.932;-117.130;2023-05-07T04:16:32;0.60;;;0.47;;
60896;SDS011;46749;32.932;-117.130;2023-05-07T04:19:00;0.63;;;0.50;;
60896;SDS011;46749;32.932;-117.130;2023-05-07T04:21:26;1.58;;;0.63;;
60896;SDS011;46749;32.932;-117.130;2023-05-07T04:23:52;0.60;;;0.45;;
60896;SDS011;46749;32.932;-117.130;2023-05-07T04:26:18;0.77;;;0.40;;
60896;SDS011;46749;32.932;-117.130;2023-05-07T04:28:46;8.68;;;0.82;;
60896;SDS011;46749;32.932;-117.130;2023-05-07T04:31:12;3.65;;;0.82;;
60896;SDS011;46749;32.932;-117.130;2023-05-07T04:33:38;3.97;;;0.60;;
60896;SDS011;46749;32.932;-117.130;2023-05-07T04:36:04;3.05;;;0.60;;
60896;SDS011;46749;32.932;-117.130;2023-05-07T04:38:31;17.48;;;1.17;;
60896;SDS011;46749;32.932;-117.130;2023-05-07T04:40:58;8.30;;;1.30;;
60896;SDS011;46749;32.932;-117.130;2023-05-07T04:43:29;9.48;;;1.00;;
60896;SDS011;46749;32.932;-117.130;2023-05-07T04:45:55;11.48;;;1.13;;
60896;SDS011;46749;32.932;-117.130;2023-05-07T04:48:21;10.95;;;1.13;;
60896;SDS011;46749;32.932;-117.130;2023-05-07T04:50:48;15.05;;;1.08;;
60896;SDS011;46749;32.932;-117.130;2023-05-07T04:53:15;8.05;;;0.82;;
60896;SDS011;46749;32.932;-117.130;2023-05-07T04:55:45;7.38;;;1.00;;
60896;SDS011;46749;32.932;-117.130;2023-05-07T04:58:11;1.80;;;0.73;;
60896;SDS011;46749;32.932;-117.130;2023-05-07T05:00:38;7.88;;;0.88;;
60896;SDS011;46749;32.932;-117.130;2023-05-07T05:03:05;7.70;;;0.77;;
60896;SDS011;46749;32.932;-117.130;2023-05-07T05:05:32;2.75;;;0.52;;
60896;SDS011;46749;32.932;-117.130;2023-05-07T05:07:59;6.90;;;0.90;;
60896;SDS011;46749;32.932;-117.130;2023-05-07T05:10:25;4.97;;;1.00;;
60896;SDS011;46749;32.932;-117.130;2023-05-07T05:12:51;4.75;;;0.90;;
60896;SDS011;46749;32.932;-117.130;2023-05-07T05:15:17;1.92;;;0.88;;
60896;SDS011;46749;32.932;-117.130;2023-05-07T05:17:43;5.40;;;1.02;;
60896;SDS011;46749;32.932;-117.130;2023-05-07T05:20:10;1.48;;;0.60;;
60896;SDS011;46749;32.932;-117.130;2023-05-07T05:22:37;3.45;;;0.68;;
60896;SDS011;46749;32.932;-117.130;2023-05-07T05:25:03;3.22;;;0.50;;
60896;SDS011;46749;32.932;-117.130;2023-05-07T05:27:29;1.83;;;0.65;;
60896;SDS011;46749;32.932;-117.130;2023-05-07T05:29:56;3.03;;;0.70;;
60896;SDS011;46749;32.932;-117.130;2023-05-07T05:32:22;1.77;;;0.70;;
60896;SDS011;46749;32.932;-117.130;2023-05-07T05:34:48;2.75;;;0.50;;
60896;SDS011;46749;32.932;-117.130;2023-05-07T05:37:14;1.88;;;0.80;;
60896;SDS011;46749;32.932;-117.130;2023-05-07T05:39:41;1.63;;;0.70;;
60896;SDS011;46749;32.932;-117.130;2023-05-07T05:42:07;2.22;;;0.80;;
60896;SDS011;46749;32.932;-117.130;2023-05-07T05:44:33;1.55;;;0.70;;
60896;SDS011;46749;32.932;-117.130;2023-05-07T05:47:00;3.65;;;0.77;;
60896;SDS011;46749;32.932;-117.130;2023-05-07T05:49:26;1.23;;;0.70;;
60896;SDS011;46749;32.932;-117.130;2023-05-07T05:51:52;1.98;;;0.50;;
60896;SDS011;46749;32.932;-117.130;2023-05-07T05:54:18;2.55;;;0.60;;
60896;SDS011;46749;32.932;-117.130;2023-05-07T05:56:44;2.10;;;0.70;;
60896;SDS011;46749;32.932;-117.130;2023-05-07T05:59:11;1.67;;;0.60;;
60896;SDS011;46749;32.932;-117.130;2023-05-07T06:01:37;1.70;;;0.73;;
60896;SDS011;46749;32.932;-117.130;2023-05-07T06:04:04;0.60;;;0.60;;
60896;SDS011;46749;32.932;-117.130;2023-05-07T06:06:30;1.67;;;0.70;;
60896;SDS011;46749;32.932;-117.130;2023-05-07T06:08:57;3.08;;;0.80;;
60896;SDS011;46749;32.932;-117.130;2023-05-07T06:11:23;1.38;;;0.50;;
60896;SDS011;46749;32.932;-117.130;2023-05-07T06:13:50;1.25;;;0.60;;
60896;SDS011;46749;32.932;-117.130;2023-05-07T06:16:16;1.65;;;0.70;;
60896;SDS011;46749;32.932;-117.130;2023-05-07T06:18:42;1.05;;;0.60;;
60896;SDS011;46749;32.932;-117.130;2023-05-07T06:21:09;1.52;;;0.70;;
60896;SDS011;46749;32.932;-117.130;2023-05-07T06:23:35;2.58;;;0.82;;
60896;SDS011;46749;32.932;-117.130;2023-05-07T06:26:01;1.70;;;0.77;;
60896;SDS011;46749;32.932;-117.130;2023-05-07T06:28:28;1.38;;;0.50;;
60896;SDS011;46749;32.932;-117.130;2023-05-07T06:30:56;1.48;;;0.70;;
60896;SDS011;46749;32.932;-117.130;2023-05-07T06:33:37;1.67;;;0.80;;
60896;SDS011;46749;32.932;-117.130;2023-05-07T06:36:03;1.27;;;0.60;;
60896;SDS011;46749;32.932;-117.130;2023-05-07T06:38:29;0.82;;;0.60;;
60896;SDS011;46749;32.932;-117.130;2023-05-07T06:40:55;1.05;;;0.70;;
60896;SDS011;46749;32.932;-117.130;2023-05-07T06:43:22;1.27;;;0.85;;
60896;SDS011;46749;32.932;-117.130;2023-05-07T06:45:48;0.90;;;0.70;;
60896;SDS011;46749;32.932;-117.130;2023-05-07T06:48:14;1.20;;;0.60;;
60896;SDS011;46749;32.932;-117.130;2023-05-07T06:50:41;1.70;;;0.70;;
60896;SDS011;46749;32.932;-117.130;2023-05-07T06:53:07;1.20;;;0.60;;
60896;SDS011;46749;32.932;-117.130;2023-05-07T06:55:33;2.05;;;0.80;;
60896;SDS011;46749;32.932;-117.130;2023-05-07T06:58:00;1.58;;;0.70;;
60896;SDS011;46749;32.932;-117.130;2023-05-07T07:00:26;2.10;;;0.80;;
60896;SDS011;46749;32.932;-117.130;2023-05-07T07:02:53;1.25;;;0.65;;
60896;SDS011;46749;32.932;-117.130;2023-05-07T07:05:20;0.88;;;0.60;;
60896;SDS011;46749;32.932;-117.130;2023-05-07T07:07:46;0.90;;;0.50;;
60896;SDS011;46749;32.932;-117.130;2023-05-07T07:10:21;1.48;;;0.70;;
60896;SDS011;46749;32.932;-117.130;2023-05-07T07:12:48;1.73;;;0.60;;
60896;SDS011;46749;32.932;-117.130;2023-05-07T07:15:15;1.23;;;0.52;;
60896;SDS011;46749;32.932;-117.130;2023-05-07T07:17:42;0.90;;;0.60;;
60896;SDS011;46749;32.932;-117.130;2023-05-07T07:20:08;0.70;;;0.50;;
60896;SDS011;46749;32.932;-117.130;2023-05-07T07:22:35;1.17;;;0.65;;
60896;SDS011;46749;32.932;-117.130;2023-05-07T07:25:01;0.80;;;0.60;;
60896;SDS011;46749;32.932;-117.130;2023-05-07T07:27:27;1.55;;;0.65;;
60896;SDS011;46749;32.932;-117.130;2023-05-07T07:29:53;1.25;;;0.77;;
60896;SDS011;46749;32.932;-117.130;2023-05-07T07:32:19;1.20;;;0.68;;
60896;SDS011;46749;32.932;-117.130;2023-05-07T07:34:46;1.48;;;0.68;;
60896;SDS011;46749;32.932;-117.130;2023-05-07T07:37:12;0.80;;;0.60;;
60896;SDS011;46749;32.932;-117.130;2023-05-07T07:39:38;2.55;;;0.80;;
60896;SDS011;46749;32.932;-117.130;2023-05-07T07:42:04;0.50;;;0.50;;
60896;SDS011;46749;32.932;-117.130;2023-05-07T07:44:30;0.80;;;0.50;;
60896;SDS011;46749;32.932;-117.130;2023-05-07T07:46:57;0.65;;;0.43;;
60896;SDS011;46749;32.932;-117.130;2023-05-07T07:49:23;0.70;;;0.63;;
60896;SDS011;46749;32.932;-117.130;2023-05-07T07:51:49;0.88;;;0.60;;
60896;SDS011;46749;32.932;-117.130;2023-05-07T07:54:16;0.77;;;0.70;;
60896;SDS011;46749;32.932;-117.130;2023-05-07T07:56:42;1.55;;;0.65;;
60896;SDS011;46749;32.932;-117.130;2023-05-07T07:59:08;0.98;;;0.68;;
60896;SDS011;46749;32.932;-117.130;2023-05-07T08:01:35;1.35;;;0.70;;
60896;SDS011;46749;32.932;-117.130;2023-05-07T08:04:01;1.10;;;0.60;;
60896;SDS011;46749;32.932;-117.130;2023-05-07T08:06:28;2.30;;;0.60;;
60896;SDS011;46749;32.932;-117.130;2023-05-07T08:08:55;2.15;;;0.80;;
60896;SDS011;46749;32.932;-117.130;2023-05-07T08:11:21;0.98;;;0.63;;
60896;SDS011;46749;32.932;-117.130;2023-05-07T08:13:47;1.67;;;0.80;;
60896;SDS011;46749;32.932;-117.130;2023-05-07T08:16:14;0.80;;;0.70;;
60896;SDS011;46749;32.932;-117.130;2023-05-07T08:18:40;1.25;;;0.80;;
60896;SDS011;46749;32.932;-117.130;2023-05-07T08:21:06;1.67;;;0.80;;
60896;SDS011;46749;32.932;-117.130;2023-05-07T08:23:32;1.52;;;0.70;;
60896;SDS011;46749;32.932;-117.130;2023-05-07T08:25:59;2.28;;;0.73;;
60896;SDS011;46749;32.932;-117.130;2023-05-07T08:28:26;0.68;;;0.50;;
60896;SDS011;46749;32.932;-117.130;2023-05-07T08:30:52;1.80;;;0.70;;
60896;SDS011;46749;32.932;-117.130;2023-05-07T08:33:18;0.85;;;0.60;;
60896;SDS011;46749;32.932;-117.130;2023-05-07T08:35:45;1.55;;;0.77;;
60896;SDS011;46749;32.932;-117.130;2023-05-07T08:38:11;0.88;;;0.60;;
60896;SDS011;46749;32.932;-117.130;2023-05-07T08:40:38;5.20;;;0.90;;
60896;SDS011;46749;32.932;-117.130;2023-05-07T08:43:06;1.50;;;0.73;;
60896;SDS011;46749;32.932;-117.130;2023-05-07T08:45:33;1.38;;;0.60;;
60896;SDS011;46749;32.932;-117.130;2023-05-07T08:48:05;1.38;;;0.75;;
60896;SDS011;46749;32.932;-117.130;2023-05-07T08:50:38;2.03;;;0.70;;
60896;SDS011;46749;32.932;-117.130;2023-05-07T08:53:04;1.95;;;0.55;;
60896;SDS011;46749;32.932;-117.130;2023-05-07T08:55:31;1.33;;;0.57;;
60896;SDS011;46749;32.932;-117.130;2023-05-07T08:57:58;1.00;;;0.63;;
60896;SDS011;46749;32.932;-117.130;2023-05-07T09:00:43;3.17;;;1.00;;
60896;SDS011;46749;32.932;-117.130;2023-05-07T09:03:09;0.77;;;0.50;;
60896;SDS011;46749;32.932;-117.130;2023-05-07T09:05:39;0.75;;;0.70;;
60896;SDS011;46749;32.932;-117.130;2023-05-07T09:08:06;1.02;;;0.77;;
60896;SDS011;46749;32.932;-117.130;2023-05-07T09:10:33;1.05;;;0.70;;
60896;SDS011;46749;32.932;-117.130;2023-05-07T09:13:00;1.08;;;0.80;;
60896;SDS011;46749;32.932;-117.130;2023-05-07T09:15:26;1.48;;;0.70;;
60896;SDS011;46749;32.932;-117.130;2023-05-07T09:17:53;1.67;;;0.68;;
60896;SDS011;46749;32.932;-117.130;2023-05-07T09:20:26;0.85;;;0.77;;
60896;SDS011;46749;32.932;-117.130;2023-05-07T09:22:52;1.08;;;0.65;;
60896;SDS011;46749;32.932;-117.130;2023-05-07T09:25:28;1.60;;;0.73;;
60896;SDS011;46749;32.932;-117.130;2023-05-07T09:27:55;1.20;;;0.93;;
60896;SDS011;46749;32.932;-117.130;2023-05-07T09:30:22;1.30;;;0.60;;
60896;SDS011;46749;32.932;-117.130;2023-05-07T09:32:48;2.10;;;0.70;;
60896;SDS011;46749;32.932;-117.130;2023-05-07T09:35:14;1.00;;;0.70;;
60896;SDS011;46749;32.932;-117.130;2023-05-07T09:37:47;0.70;;;0.50;;
60896;SDS011;46749;32.932;-117.130;2023-05-07T09:40:22;0.55;;;0.50;;
60896;SDS011;46749;32.932;-117.130;2023-05-07T09:42:50;0.88;;;0.60;;
60896;SDS011;46749;32.932;-117.130;2023-05-07T09:45:37;0.60;;;0.60;;
60896;SDS011;46749;32.932;-117.130;2023-05-07T09:48:04;0.90;;;0.60;;
60896;SDS011;46749;32.932;-117.130;2023-05-07T09:50:33;0.70;;;0.70;;
60896;SDS011;46749;32.932;-117.130;2023-05-07T09:53:03;1.25;;;0.90;;
60896;SDS011;46749;32.932;-117.130;2023-05-07T09:55:30;0.90;;;0.70;;
60896;SDS011;46749;32.932;-117.130;2023-05-07T09:57:56;0.57;;;0.57;;
60896;SDS011;46749;32.932;-117.130;2023-05-07T10:00:24;0.80;;;0.60;;
60896;SDS011;46749;32.932;-117.130;2023-05-07T10:02:53;2.15;;;0.70;;
60896;SDS011;46749;32.932;-117.130;2023-05-07T10:05:23;0.98;;;0.60;;
60896;SDS011;46749;32.932;-117.130;2023-05-07T10:07:50;1.85;;;0.75;;
60896;SDS011;46749;32.932;-117.130;2023-05-07T10:10:18;0.65;;;0.52;;
60896;SDS011;46749;32.932;-117.130;2023-05-07T10:12:44;0.80;;;0.70;;
60896;SDS011;46749;32.932;-117.130;2023-05-07T10:15:12;0.93;;;0.70;;
60896;SDS011;46749;32.932;-117.130;2023-05-07T10:17:39;0.82;;;0.73;;
60896;SDS011;46749;32.932;-117.130;2023-05-07T10:20:06;1.77;;;0.70;;
60896;SDS011;46749;32.932;-117.130;2023-05-07T10:22:37;3.70;;;0.60;;
60896;SDS011;46749;32.932;-117.130;2023-05-07T10:25:17;0.50;;;0.50;;
60896;SDS011;46749;32.932;-117.130;2023-05-07T10:27:48;1.10;;;0.55;;
60896;SDS011;46749;32.932;-117.130;2023-05-07T10:30:38;0.82;;;0.70;;
60896;SDS011;46749;32.932;-117.130;2023-05-07T10:33:15;1.00;;;0.60;;
60896;SDS011;46749;32.932;-117.130;2023-05-07T10:35:45;1.00;;;0.57;;
60896;SDS011;46749;32.932;-117.130;2023-05-07T10:38:13;0.75;;;0.63;;
60896;SDS011;46749;32.932;-117.130;2023-05-07T10:40:39;0.60;;;0.60;;
60896;SDS011;46749;32.932;-117.130;2023-05-07T10:43:06;0.77;;;0.60;;
60896;SDS011;46749;32.932;-117.130;2023-05-07T10:45:32;1.10;;;0.70;;
60896;SDS011;46749;32.932;-117.130;2023-05-07T10:50:32;0.65;;;0.65;;
60896;SDS011;46749;32.932;-117.130;2023-05-07T10:59:13;1.10;;;0.70;;
60896;SDS011;46749;32.932;-117.130;2023-05-07T11:01:56;0.98;;;0.60;;
60896;SDS011;46749;32.932;-117.130;2023-05-07T11:04:25;0.95;;;0.70;;
60896;SDS011;46749;32.932;-117.130;2023-05-07T11:15:06;0.85;;;0.63;;
60896;SDS011;46749;32.932;-117.130;2023-05-07T11:17:34;0.52;;;0.50;;
60896;SDS011;46749;32.932;-117.130;2023-05-07T11:20:18;0.88;;;0.60;;
60896;SDS011;46749;32.932;-117.130;2023-05-07T11:22:44;1.23;;;0.60;;
60896;SDS011;46749;32.932;-117.130;2023-05-07T11:25:10;0.98;;;0.63;;
60896;SDS011;46749;32.932;-117.130;2023-05-07T11:27:44;0.80;;;0.60;;
60896;SDS011;46749;32.932;-117.130;2023-05-07T11:30:16;1.45;;;0.73;;
60896;SDS011;46749;32.932;-117.130;2023-05-07T11:32:47;2.95;;;0.80;;
60896;SDS011;46749;32.932;-117.130;2023-05-07T11:35:13;0.57;;;0.57;;
60896;SDS011;46749;32.932;-117.130;2023-05-07T11:37:42;0.90;;;0.70;;
60896;SDS011;46749;32.932;-117.130;2023-05-07T11:40:11;1.08;;;0.70;;
60896;SDS011;46749;32.932;-117.130;2023-05-07T11:42:39;1.58;;;0.70;;
60896;SDS011;46749;32.932;-117.130;2023-05-07T11:45:08;0.88;;;0.63;;
60896;SDS011;46749;32.932;-117.130;2023-05-07T11:47:35;0.90;;;0.50;;
60896;SDS011;46749;32.932;-117.130;2023-05-07T11:50:04;1.05;;;0.52;;
60896;SDS011;46749;32.932;-117.130;2023-05-07T11:52:32;0.50;;;0.50;;
60896;SDS011;46749;32.932;-117.130;2023-05-07T11:55:00;0.60;;;0.60;;
60896;SDS011;46749;32.932;-117.130;2023-05-07T11:57:28;0.68;;;0.50;;
60896;SDS011;46749;32.932;-117.130;2023-05-07T11:59:55;2.05;;;0.63;;
60896;SDS011;46749;32.932;-117.130;2023-05-07T12:02:22;1.45;;;0.70;;
60896;SDS011;46749;32.932;-117.130;2023-05-07T12:04:52;2.50;;;0.80;;
60896;SDS011;46749;32.932;-117.130;2023-05-07T12:07:20;1.00;;;0.60;;
60896;SDS011;46749;32.932;-117.130;2023-05-07T12:09:47;1.10;;;0.52;;
60896;SDS011;46749;32.932;-117.130;2023-05-07T12:12:13;1.55;;;0.75;;
60896;SDS011;46749;32.932;-117.130;2023-05-07T12:14:41;0.95;;;0.60;;
60896;SDS011;46749;32.932;-117.130;2023-05-07T12:17:09;0.77;;;0.50;;
60896;SDS011;46749;32.932;-117.130;2023-05-07T12:19:36;0.47;;;0.47;;
60896;SDS011;46749;32.932;-117.130;2023-05-07T12:22:05;2.00;;;0.60;;
60896;SDS011;46749;32.932;-117.130;2023-05-07T12:24:47;1.00;;;0.60;;
60896;SDS011;46749;32.932;-117.130;2023-05-07T12:27:15;0.55;;;0.55;;
60896;SDS011;46749;32.932;-117.130;2023-05-07T12:29:49;1.02;;;0.70;;
60896;SDS011;46749;32.932;-117.130;2023-05-07T12:32:16;0.60;;;0.60;;
60896;SDS011;46749;32.932;-117.130;2023-05-07T12:34:44;0.50;;;0.43;;
60896;SDS011;46749;32.932;-117.130;2023-05-07T12:37:11;1.38;;;0.95;;
60896;SDS011;46749;32.932;-117.130;2023-05-07T12:39:43;1.38;;;0.60;;
60896;SDS011;46749;32.932;-117.130;2023-05-07T12:42:15;0.50;;;0.50;;
60896;SDS011;46749;32.932;-117.130;2023-05-07T12:44:43;0.60;;;0.50;;
60896;SDS011;46749;32.932;-117.130;2023-05-07T12:47:11;1.20;;;0.70;;
60896;SDS011;46749;32.932;-117.130;2023-05-07T12:49:38;0.77;;;0.63;;
60896;SDS011;46749;32.932;-117.130;2023-05-07T12:52:05;0.70;;;0.70;;
60896;SDS011;46749;32.932;-117.130;2023-05-07T12:54:32;0.70;;;0.57;;
60896;SDS011;46749;32.932;-117.130;2023-05-07T12:57:06;0.90;;;0.50;;
60896;SDS011;46749;32.932;-117.130;2023-05-07T12:59:37;1.40;;;0.60;;
60896;SDS011;46749;32.932;-117.130;2023-05-07T13:02:05;0.57;;;0.57;;
60896;SDS011;46749;32.932;-117.130;2023-05-07T13:04:32;0.65;;;0.60;;
60896;SDS011;46749;32.932;-117.130;2023-05-07T13:06:59;1.30;;;0.60;;
60896;SDS011;46749;32.932;-117.130;2023-05-07T13:09:25;1.90;;;0.70;;
60896;SDS011;46749;32.932;-117.130;2023-05-07T13:11:53;1.98;;;0.50;;
60896;SDS011;46749;32.932;-117.130;2023-05-07T13:14:20;1.02;;;0.63;;
60896;SDS011;46749;32.932;-117.130;2023-05-07T13:16:47;0.60;;;0.50;;
60896;SDS011;46749;32.932;-117.130;2023-05-07T13:19:13;0.57;;;0.50;;
60896;SDS011;46749;32.932;-117.130;2023-05-07T13:21:39;0.95;;;0.60;;
60896;SDS011;46749;32.932;-117.130;2023-05-07T13:24:06;0.85;;;0.73;;
60896;SDS011;46749;32.932;-117.130;2023-05-07T13:26:32;1.23;;;0.70;;
60896;SDS011;46749;32.932;-117.130;2023-05-07T13:28:58;1.95;;;0.70;;
60896;SDS011;46749;32.932;-117.130;2023-05-07T13:31:24;1.02;;;0.52;;
60896;SDS011;46749;32.932;-117.130;2023-05-07T13:33:51;0.55;;;0.50;;
60896;SDS011;46749;32.932;-117.130;2023-05-07T13:36:17;0.75;;;0.50;;
60896;SDS011;46749;32.932;-117.130;2023-05-07T13:38:44;1.20;;;0.60;;
60896;SDS011;46749;32.932;-117.130;2023-05-07T13:41:10;1.88;;;0.63;;
60896;SDS011;46749;32.932;-117.130;2023-05-07T13:43:38;0.75;;;0.60;;
60896;SDS011;46749;32.932;-117.130;2023-05-07T13:46:04;0.73;;;0.45;;
60896;SDS011;46749;32.932;-117.130;2023-05-07T13:48:30;0.77;;;0.68;;
60896;SDS011;46749;32.932;-117.130;2023-05-07T13:50:56;0.60;;;0.60;;
60896;SDS011;46749;32.932;-117.130;2023-05-07T13:53:22;1.38;;;0.70;;
60896;SDS011;46749;32.932;-117.130;2023-05-07T13:55:48;0.70;;;0.60;;
60896;SDS011;46749;32.932;-117.130;2023-05-07T13:58:15;0.77;;;0.47;;
60896;SDS011;46749;32.932;-117.130;2023-05-07T14:00:41;0.63;;;0.52;;
60896;SDS011;46749;32.932;-117.130;2023-05-07T14:03:07;2.03;;;0.63;;
60896;SDS011;46749;32.932;-117.130;2023-05-07T14:05:33;0.90;;;0.50;;
60896;SDS011;46749;32.932;-117.130;2023-05-07T14:08:00;0.65;;;0.60;;
60896;SDS011;46749;32.932;-117.130;2023-05-07T14:10:26;0.80;;;0.60;;
60896;SDS011;46749;32.932;-117.130;2023-05-07T14:12:52;0.85;;;0.50;;
60896;SDS011;46749;32.932;-117.130;2023-05-07T14:15:19;0.52;;;0.50;;
60896;SDS011;46749;32.932;-117.130;2023-05-07T14:17:45;1.02;;;0.57;;
60896;SDS011;46749;32.932;-117.130;2023-05-07T14:20:12;1.52;;;0.60;;
60896;SDS011;46749;32.932;-117.130;2023-05-07T14:22:38;0.68;;;0.40;;
60896;SDS011;46749;32.932;-117.130;2023-05-07T14:25:05;1.95;;;0.70;;
60896;SDS011;46749;32.932;-117.130;2023-05-07T14:27:31;2.05;;;0.60;;
60896;SDS011;46749;32.932;-117.130;2023-05-07T14:29:58;0.60;;;0.50;;